Jawor — C6YH8 — position and weather

sailwx.info

Track history (hours):
 
Tides and Currents Weather Stations Pressure Air Temp Water Temp Dewpoint Dewpoint Depression Visibility Wind Speed Wind Dir Waves Ship Positions

Jawor

Last reported at 2015-Jan-30 11:23 UTC. Time now 2015-Feb-27 00:31 UTC.
Position N 01°52' E 102°26'.
Warning: this ship's position is 27 days out of date.

Length 229 m; draft 14.9 m.

Type: Cargo ship. MMSI: 311034100.

Date/timePositionNaut miles runAvg speedWind from/ knotsBaromVisibWave heightAir tempDewpointWater temp
2015-Jan-30 11:23N 01°52' E 102°26'1011.1
2015-Jan-30 10:27N 01°48' E 102°36'8011.2
2015-Jan-30 03:19N 01°09' E 103°45'8 9.8
2015-Jan-30 02:34N 01°12' E 103°52'7 5.8
2015-Jan-30 01:26N 01°17' E 103°57'0 0.1
2015-Jan-30 00:20N 01°17' E 103°57'0 0.0
2015-Jan-29 23:32N 01°17' E 103°57'0 0.1
2015-Jan-29 22:26N 01°17' E 103°57'0 0.0
2015-Jan-29 21:20N 01°17' E 103°57'0 0.0
2015-Jan-29 20:14N 01°17' E 103°57'0 0.0
2015-Jan-29 19:32N 01°17' E 103°57'0 0.0
2015-Jan-29 18:26N 01°17' E 103°57'0 0.0
2015-Jan-29 17:29N 01°17' E 103°57'0 0.1
2015-Jan-29 16:32N 01°17' E 103°57'0 0.1
2015-Jan-29 15:32N 01°17' E 103°57'0 0.0
2015-Jan-29 14:14N 01°17' E 103°57'0 0.0
2015-Jan-29 12:26N 01°17' E 103°57'0 0.0
2015-Jan-29 11:32N 01°17' E 103°57'0 0.1
2015-Jan-29 10:32N 01°17' E 103°57'0 0.0
2015-Jan-29 09:32N 01°17' E 103°57'0 0.1
2015-Jan-29 08:20N 01°17' E 103°57'1 1.7
2015-Jan-29 07:33N 01°16' E 103°58'3 3.3
2015-Jan-29 06:31N 01°16' E 104°02'5 5.6
2015-Jan-29 05:33N 01°17' E 104°07'  
Track history (hours):
 
Tides and Currents Weather Stations Pressure Air Temp Water Temp Dewpoint Dewpoint Depression Visibility Wind Speed Wind Dir Waves Ship Positions

Jawor

Last reported at 2015-Jan-30 11:23 UTC. Time now 2015-Feb-27 00:31 UTC.
Position N 01°52' E 102°26'.
Warning: this ship's position is 27 days out of date.

Length 229 m; draft 14.9 m.

Type: Cargo ship. MMSI: 311034100.

Date/timePositionNaut miles runAvg speedWind from/ knotsBaromVisibWave heightAir tempDewpointWater temp
2015-Jan-30 11:23N 01°52' E 102°26'1011.1
2015-Jan-30 10:27N 01°48' E 102°36'8011.2
2015-Jan-30 03:19N 01°09' E 103°45'8 9.8
2015-Jan-30 02:34N 01°12' E 103°52'7 5.8
2015-Jan-30 01:26N 01°17' E 103°57'0 0.1
2015-Jan-30 00:20N 01°17' E 103°57'0 0.0
2015-Jan-29 23:32N 01°17' E 103°57'0 0.1
2015-Jan-29 22:26N 01°17' E 103°57'0 0.0
2015-Jan-29 21:20N 01°17' E 103°57'0 0.0
2015-Jan-29 20:14N 01°17' E 103°57'0 0.0
2015-Jan-29 19:32N 01°17' E 103°57'0 0.0
2015-Jan-29 18:26N 01°17' E 103°57'0 0.0
2015-Jan-29 17:29N 01°17' E 103°57'0 0.1
2015-Jan-29 16:32N 01°17' E 103°57'0 0.1
2015-Jan-29 15:32N 01°17' E 103°57'0 0.0
2015-Jan-29 14:14N 01°17' E 103°57'0 0.0
2015-Jan-29 12:26N 01°17' E 103°57'0 0.0
2015-Jan-29 11:32N 01°17' E 103°57'0 0.1
2015-Jan-29 10:32N 01°17' E 103°57'0 0.0
2015-Jan-29 09:32N 01°17' E 103°57'0 0.1
2015-Jan-29 08:20N 01°17' E 103°57'1 1.7
2015-Jan-29 07:33N 01°16' E 103°58'3 3.3
2015-Jan-29 06:31N 01°16' E 104°02'5 5.6
2015-Jan-29 05:33N 01°17' E 104°07'  

Dump ship's entire track history